sensor_id;sensor_type;location;lat;lon;timestamp;P1;durP1;ratioP1;P2;durP2;ratioP2
1370;SDS011;14306;49.942;11.570;2023-12-20T00:00:54;11.63;;;8.35;;
1370;SDS011;14306;49.942;11.570;2023-12-20T00:02:29;14.50;;;9.52;;
1370;SDS011;14306;49.942;11.570;2023-12-20T00:04:04;13.75;;;9.40;;
1370;SDS011;14306;49.942;11.570;2023-12-20T00:05:38;18.25;;;9.60;;
1370;SDS011;14306;49.942;11.570;2023-12-20T00:07:13;19.88;;;9.40;;
1370;SDS011;14306;49.942;11.570;2023-12-20T00:08:48;14.25;;;10.05;;
1370;SDS011;14306;49.942;11.570;2023-12-20T00:10:22;17.92;;;9.32;;
1370;SDS011;14306;49.942;11.570;2023-12-20T00:11:56;14.07;;;9.32;;
1370;SDS011;14306;49.942;11.570;2023-12-20T00:13:30;13.40;;;9.60;;
1370;SDS011;14306;49.942;11.570;2023-12-20T00:15:04;13.35;;;9.18;;
1370;SDS011;14306;49.942;11.570;2023-12-20T00:16:39;14.18;;;9.20;;
1370;SDS011;14306;49.942;11.570;2023-12-20T00:18:12;14.32;;;8.45;;
1370;SDS011;14306;49.942;11.570;2023-12-20T00:19:48;14.13;;;8.90;;
1370;SDS011;14306;49.942;11.570;2023-12-20T00:21:21;13.32;;;9.15;;
1370;SDS011;14306;49.942;11.570;2023-12-20T00:22:56;16.67;;;10.13;;
1370;SDS011;14306;49.942;11.570;2023-12-20T00:24:30;14.15;;;9.45;;
1370;SDS011;14306;49.942;11.570;2023-12-20T00:26:05;13.48;;;9.10;;
1370;SDS011;14306;49.942;11.570;2023-12-20T00:27:39;12.93;;;9.40;;
1370;SDS011;14306;49.942;11.570;2023-12-20T00:29:13;15.50;;;9.85;;
1370;SDS011;14306;49.942;11.570;2023-12-20T00:30:47;12.57;;;8.27;;
1370;SDS011;14306;49.942;11.570;2023-12-20T00:32:21;11.68;;;8.35;;
1370;SDS011;14306;49.942;11.570;2023-12-20T00:33:55;13.88;;;8.55;;
1370;SDS011;14306;49.942;11.570;2023-12-20T00:35:30;12.65;;;8.10;;
1370;SDS011;14306;49.942;11.570;2023-12-20T00:37:05;15.60;;;8.88;;
1370;SDS011;14306;49.942;11.570;2023-12-20T00:38:38;13.23;;;8.93;;
1370;SDS011;14306;49.942;11.570;2023-12-20T00:40:12;12.90;;;8.15;;
1370;SDS011;14306;49.942;11.570;2023-12-20T00:41:46;12.10;;;8.10;;
1370;SDS011;14306;49.942;11.570;2023-12-20T00:43:21;12.40;;;7.93;;
1370;SDS011;14306;49.942;11.570;2023-12-20T00:44:54;16.17;;;8.60;;
1370;SDS011;14306;49.942;11.570;2023-12-20T00:46:28;11.52;;;8.20;;
1370;SDS011;14306;49.942;11.570;2023-12-20T00:48:02;14.43;;;9.45;;
1370;SDS011;14306;49.942;11.570;2023-12-20T00:49:36;10.85;;;7.97;;
1370;SDS011;14306;49.942;11.570;2023-12-20T00:51:11;10.73;;;7.78;;
1370;SDS011;14306;49.942;11.570;2023-12-20T00:52:45;16.40;;;8.63;;
1370;SDS011;14306;49.942;11.570;2023-12-20T00:54:19;9.85;;;7.63;;
1370;SDS011;14306;49.942;11.570;2023-12-20T00:55:53;11.48;;;8.00;;
1370;SDS011;14306;49.942;11.570;2023-12-20T00:57:26;12.15;;;8.82;;
1370;SDS011;14306;49.942;11.570;2023-12-20T00:59:01;12.98;;;8.57;;
1370;SDS011;14306;49.942;11.570;2023-12-20T01:00:34;11.63;;;7.85;;
1370;SDS011;14306;49.942;11.570;2023-12-20T01:02:09;14.90;;;8.52;;
1370;SDS011;14306;49.942;11.570;2023-12-20T01:03:42;10.38;;;7.70;;
1370;SDS011;14306;49.942;11.570;2023-12-20T01:05:17;8.20;;;6.70;;
1370;SDS011;14306;49.942;11.570;2023-12-20T01:06:52;11.50;;;7.60;;
1370;SDS011;14306;49.942;11.570;2023-12-20T01:08:27;8.80;;;6.38;;
1370;SDS011;14306;49.942;11.570;2023-12-20T01:10:00;8.35;;;6.68;;
1370;SDS011;14306;49.942;11.570;2023-12-20T01:11:34;10.60;;;6.30;;
1370;SDS011;14306;49.942;11.570;2023-12-20T01:13:08;6.57;;;5.25;;
1370;SDS011;14306;49.942;11.570;2023-12-20T01:14:43;11.43;;;5.85;;
1370;SDS011;14306;49.942;11.570;2023-12-20T01:16:16;13.18;;;5.35;;
1370;SDS011;14306;49.942;11.570;2023-12-20T01:17:51;7.30;;;5.03;;
1370;SDS011;14306;49.942;11.570;2023-12-20T01:19:25;5.35;;;4.40;;
1370;SDS011;14306;49.942;11.570;2023-12-20T01:21:01;7.32;;;4.47;;
1370;SDS011;14306;49.942;11.570;2023-12-20T01:22:37;6.22;;;4.50;;
1370;SDS011;14306;49.942;11.570;2023-12-20T01:24:11;8.25;;;5.15;;
1370;SDS011;14306;49.942;11.570;2023-12-20T01:25:45;6.03;;;4.90;;
1370;SDS011;14306;49.942;11.570;2023-12-20T01:27:19;5.00;;;4.20;;
1370;SDS011;14306;49.942;11.570;2023-12-20T01:28:54;5.25;;;4.03;;
1370;SDS011;14306;49.942;11.570;2023-12-20T01:30:27;5.35;;;4.35;;
1370;SDS011;14306;49.942;11.570;2023-12-20T01:32:02;5.72;;;4.10;;
1370;SDS011;14306;49.942;11.570;2023-12-20T01:33:36;5.18;;;4.05;;
1370;SDS011;14306;49.942;11.570;2023-12-20T01:35:11;6.22;;;4.45;;
1370;SDS011;14306;49.942;11.570;2023-12-20T01:36:45;8.77;;;5.05;;
1370;SDS011;14306;49.942;11.570;2023-12-20T01:38:21;4.55;;;3.50;;
1370;SDS011;14306;49.942;11.570;2023-12-20T01:39:55;5.85;;;3.63;;
1370;SDS011;14306;49.942;11.570;2023-12-20T01:41:29;6.90;;;4.05;;
1370;SDS011;14306;49.942;11.570;2023-12-20T01:43:06;4.20;;;3.53;;
1370;SDS011;14306;49.942;11.570;2023-12-20T01:44:41;5.40;;;3.80;;
1370;SDS011;14306;49.942;11.570;2023-12-20T01:46:15;4.63;;;3.17;;
1370;SDS011;14306;49.942;11.570;2023-12-20T01:47:51;5.72;;;3.47;;
1370;SDS011;14306;49.942;11.570;2023-12-20T01:49:24;3.35;;;3.03;;
1370;SDS011;14306;49.942;11.570;2023-12-20T01:50:59;5.97;;;4.07;;
1370;SDS011;14306;49.942;11.570;2023-12-20T01:52:33;3.97;;;3.50;;
1370;SDS011;14306;49.942;11.570;2023-12-20T01:54:10;5.43;;;3.85;;
1370;SDS011;14306;49.942;11.570;2023-12-20T01:55:44;3.85;;;3.05;;
1370;SDS011;14306;49.942;11.570;2023-12-20T01:57:19;5.07;;;3.88;;
1370;SDS011;14306;49.942;11.570;2023-12-20T01:58:52;4.47;;;3.67;;
1370;SDS011;14306;49.942;11.570;2023-12-20T02:00:28;6.15;;;3.60;;
1370;SDS011;14306;49.942;11.570;2023-12-20T02:02:03;5.63;;;3.63;;
1370;SDS011;14306;49.942;11.570;2023-12-20T02:03:38;4.43;;;3.92;;
1370;SDS011;14306;49.942;11.570;2023-12-20T02:05:12;7.53;;;2.97;;
1370;SDS011;14306;49.942;11.570;2023-12-20T02:06:47;2.90;;;2.70;;
1370;SDS011;14306;49.942;11.570;2023-12-20T02:08:25;6.65;;;3.00;;
1370;SDS011;14306;49.942;11.570;2023-12-20T02:10:00;4.00;;;3.42;;
1370;SDS011;14306;49.942;11.570;2023-12-20T02:11:34;5.00;;;3.85;;
1370;SDS011;14306;49.942;11.570;2023-12-20T02:13:10;3.65;;;3.00;;
1370;SDS011;14306;49.942;11.570;2023-12-20T02:14:43;4.57;;;3.08;;
1370;SDS011;14306;49.942;11.570;2023-12-20T02:16:18;4.20;;;2.50;;
1370;SDS011;14306;49.942;11.570;2023-12-20T02:17:53;3.20;;;2.80;;
1370;SDS011;14306;49.942;11.570;2023-12-20T02:19:27;2.75;;;2.10;;
1370;SDS011;14306;49.942;11.570;2023-12-20T02:21:03;2.65;;;2.15;;
1370;SDS011;14306;49.942;11.570;2023-12-20T02:22:38;3.60;;;2.47;;
1370;SDS011;14306;49.942;11.570;2023-12-20T02:24:13;3.72;;;2.85;;
1370;SDS011;14306;49.942;11.570;2023-12-20T02:25:47;3.40;;;1.85;;
1370;SDS011;14306;49.942;11.570;2023-12-20T02:27:21;2.60;;;2.03;;
1370;SDS011;14306;49.942;11.570;2023-12-20T02:28:55;3.33;;;2.40;;
1370;SDS011;14306;49.942;11.570;2023-12-20T02:30:29;2.80;;;2.50;;
1370;SDS011;14306;49.942;11.570;2023-12-20T02:32:05;2.33;;;1.90;;
1370;SDS011;14306;49.942;11.570;2023-12-20T02:33:39;2.60;;;2.40;;
1370;SDS011;14306;49.942;11.570;2023-12-20T02:35:14;3.35;;;2.20;;
1370;SDS011;14306;49.942;11.570;2023-12-20T02:36:48;1.83;;;1.73;;
1370;SDS011;14306;49.942;11.570;2023-12-20T02:38:24;2.63;;;1.88;;
1370;SDS011;14306;49.942;11.570;2023-12-20T02:39:57;2.78;;;2.33;;
1370;SDS011;14306;49.942;11.570;2023-12-20T02:41:32;2.85;;;2.08;;
1370;SDS011;14306;49.942;11.570;2023-12-20T02:43:05;1.90;;;1.70;;
1370;SDS011;14306;49.942;11.570;2023-12-20T02:44:40;2.00;;;1.85;;
1370;SDS011;14306;49.942;11.570;2023-12-20T02:46:13;3.03;;;2.15;;
1370;SDS011;14306;49.942;11.570;2023-12-20T02:47:49;2.78;;;2.47;;
1370;SDS011;14306;49.942;11.570;2023-12-20T02:49:23;2.45;;;2.03;;
1370;SDS011;14306;49.942;11.570;2023-12-20T02:50:57;3.40;;;1.60;;
1370;SDS011;14306;49.942;11.570;2023-12-20T02:52:31;3.95;;;1.70;;
1370;SDS011;14306;49.942;11.570;2023-12-20T02:54:06;2.88;;;1.75;;
1370;SDS011;14306;49.942;11.570;2023-12-20T02:55:40;1.63;;;1.52;;
1370;SDS011;14306;49.942;11.570;2023-12-20T02:57:14;1.20;;;1.10;;
1370;SDS011;14306;49.942;11.570;2023-12-20T02:58:48;1.60;;;1.45;;
1370;SDS011;14306;49.942;11.570;2023-12-20T03:00:22;1.90;;;1.70;;
1370;SDS011;14306;49.942;11.570;2023-12-20T03:01:55;2.30;;;1.33;;
1370;SDS011;14306;49.942;11.570;2023-12-20T03:03:30;1.65;;;1.48;;
1370;SDS011;14306;49.942;11.570;2023-12-20T03:05:05;1.35;;;1.20;;
1370;SDS011;14306;49.942;11.570;2023-12-20T03:06:39;2.00;;;1.52;;
1370;SDS011;14306;49.942;11.570;2023-12-20T03:08:13;1.60;;;1.20;;
1370;SDS011;14306;49.942;11.570;2023-12-20T03:09:48;3.25;;;1.27;;
1370;SDS011;14306;49.942;11.570;2023-12-20T03:11:41;1.55;;;1.23;;
1370;SDS011;14306;49.942;11.570;2023-12-20T03:13:16;1.83;;;1.45;;
1370;SDS011;14306;49.942;11.570;2023-12-20T03:14:49;2.80;;;1.40;;
1370;SDS011;14306;49.942;11.570;2023-12-20T03:16:23;1.02;;;1.00;;
1370;SDS011;14306;49.942;11.570;2023-12-20T03:17:58;2.10;;;1.45;;
1370;SDS011;14306;49.942;11.570;2023-12-20T03:19:31;2.58;;;1.35;;
1370;SDS011;14306;49.942;11.570;2023-12-20T03:21:06;2.10;;;1.30;;
1370;SDS011;14306;49.942;11.570;2023-12-20T03:22:39;1.40;;;1.30;;
1370;SDS011;14306;49.942;11.570;2023-12-20T03:24:13;2.65;;;1.50;;
1370;SDS011;14306;49.942;11.570;2023-12-20T03:25:48;5.60;;;1.13;;
1370;SDS011;14306;49.942;11.570;2023-12-20T03:27:22;1.50;;;1.40;;
1370;SDS011;14306;49.942;11.570;2023-12-20T03:28:56;1.10;;;1.00;;
1370;SDS011;14306;49.942;11.570;2023-12-20T03:30:30;1.30;;;0.90;;
1370;SDS011;14306;49.942;11.570;2023-12-20T03:32:03;1.42;;;1.30;;
1370;SDS011;14306;49.942;11.570;2023-12-20T03:33:38;1.40;;;1.10;;
1370;SDS011;14306;49.942;11.570;2023-12-20T03:35:12;1.98;;;1.10;;
1370;SDS011;14306;49.942;11.570;2023-12-20T03:36:46;2.55;;;1.30;;
1370;SDS011;14306;49.942;11.570;2023-12-20T03:38:20;1.00;;;0.90;;
1370;SDS011;14306;49.942;11.570;2023-12-20T03:39:56;0.75;;;0.75;;
1370;SDS011;14306;49.942;11.570;2023-12-20T03:41:31;6.82;;;1.05;;
1370;SDS011;14306;49.942;11.570;2023-12-20T03:43:05;1.00;;;0.90;;
1370;SDS011;14306;49.942;11.570;2023-12-20T03:44:38;1.35;;;1.20;;
1370;SDS011;14306;49.942;11.570;2023-12-20T03:46:13;0.80;;;0.80;;
1370;SDS011;14306;49.942;11.570;2023-12-20T03:47:46;1.35;;;0.90;;
1370;SDS011;14306;49.942;11.570;2023-12-20T03:49:21;1.00;;;0.90;;
1370;SDS011;14306;49.942;11.570;2023-12-20T03:50:54;0.95;;;0.90;;
1370;SDS011;14306;49.942;11.570;2023-12-20T03:52:28;3.40;;;1.00;;
1370;SDS011;14306;49.942;11.570;2023-12-20T03:54:01;0.80;;;0.80;;
1370;SDS011;14306;49.942;11.570;2023-12-20T03:55:35;2.10;;;1.10;;
1370;SDS011;14306;49.942;11.570;2023-12-20T03:57:10;1.25;;;0.90;;
1370;SDS011;14306;49.942;11.570;2023-12-20T03:58:44;1.13;;;1.00;;
1370;SDS011;14306;49.942;11.570;2023-12-20T04:00:18;3.50;;;1.00;;
1370;SDS011;14306;49.942;11.570;2023-12-20T04:01:51;1.50;;;1.00;;
1370;SDS011;14306;49.942;11.570;2023-12-20T04:03:26;1.10;;;1.00;;
1370;SDS011;14306;49.942;11.570;2023-12-20T04:05:00;1.42;;;0.90;;
1370;SDS011;14306;49.942;11.570;2023-12-20T04:06:33;0.80;;;0.80;;
1370;SDS011;14306;49.942;11.570;2023-12-20T04:08:07;1.05;;;0.90;;
1370;SDS011;14306;49.942;11.570;2023-12-20T04:09:40;1.33;;;0.70;;
1370;SDS011;14306;49.942;11.570;2023-12-20T04:11:15;0.80;;;0.70;;
1370;SDS011;14306;49.942;11.570;2023-12-20T04:12:49;0.80;;;0.80;;
1370;SDS011;14306;49.942;11.570;2023-12-20T04:14:23;0.70;;;0.70;;
1370;SDS011;14306;49.942;11.570;2023-12-20T04:15:57;2.55;;;0.90;;
1370;SDS011;14306;49.942;11.570;2023-12-20T04:17:31;0.80;;;0.80;;
1370;SDS011;14306;49.942;11.570;2023-12-20T04:19:05;1.05;;;0.77;;
1370;SDS011;14306;49.942;11.570;2023-12-20T04:20:39;1.23;;;1.00;;
1370;SDS011;14306;49.942;11.570;2023-12-20T04:22:12;0.80;;;0.80;;
1370;SDS011;14306;49.942;11.570;2023-12-20T04:23:46;1.65;;;0.80;;
1370;SDS011;14306;49.942;11.570;2023-12-20T04:25:19;1.55;;;0.80;;
1370;SDS011;14306;49.942;11.570;2023-12-20T04:26:54;0.70;;;0.70;;
1370;SDS011;14306;49.942;11.570;2023-12-20T04:28:28;4.53;;;2.05;;
1370;SDS011;14306;49.942;11.570;2023-12-20T04:30:04;2.75;;;0.90;;
1370;SDS011;14306;49.942;11.570;2023-12-20T04:31:38;1.35;;;0.90;;
1370;SDS011;14306;49.942;11.570;2023-12-20T04:33:12;1.50;;;0.70;;
1370;SDS011;14306;49.942;11.570;2023-12-20T04:34:45;0.80;;;0.73;;
1370;SDS011;14306;49.942;11.570;2023-12-20T04:36:19;1.27;;;0.80;;
1370;SDS011;14306;49.942;11.570;2023-12-20T04:37:54;1.23;;;0.70;;
1370;SDS011;14306;49.942;11.570;2023-12-20T04:39:27;1.27;;;0.90;;
1370;SDS011;14306;49.942;11.570;2023-12-20T04:41:01;0.70;;;0.70;;
1370;SDS011;14306;49.942;11.570;2023-12-20T04:42:35;0.70;;;0.70;;
1370;SDS011;14306;49.942;11.570;2023-12-20T04:44:11;2.05;;;0.93;;
1370;SDS011;14306;49.942;11.570;2023-12-20T04:45:44;2.20;;;0.70;;
1370;SDS011;14306;49.942;11.570;2023-12-20T04:47:21;1.05;;;0.98;;
1370;SDS011;14306;49.942;11.570;2023-12-20T04:48:55;0.70;;;0.70;;
1370;SDS011;14306;49.942;11.570;2023-12-20T04:50:29;4.03;;;0.88;;
1370;SDS011;14306;49.942;11.570;2023-12-20T04:52:02;0.95;;;0.90;;
1370;SDS011;14306;49.942;11.570;2023-12-20T04:53:37;1.60;;;1.00;;
1370;SDS011;14306;49.942;11.570;2023-12-20T04:55:10;4.13;;;1.10;;
1370;SDS011;14306;49.942;11.570;2023-12-20T04:56:44;2.10;;;1.80;;
1370;SDS011;14306;49.942;11.570;2023-12-20T04:58:17;2.40;;;1.30;;
1370;SDS011;14306;49.942;11.570;2023-12-20T04:59:53;2.35;;;1.30;;
1370;SDS011;14306;49.942;11.570;2023-12-20T05:01:28;3.25;;;1.08;;
1370;SDS011;14306;49.942;11.570;2023-12-20T05:03:01;1.17;;;0.80;;
1370;SDS011;14306;49.942;11.570;2023-12-20T05:04:35;0.90;;;0.80;;
1370;SDS011;14306;49.942;11.570;2023-12-20T05:06:09;2.25;;;0.80;;
1370;SDS011;14306;49.942;11.570;2023-12-20T05:07:43;1.00;;;0.80;;
1370;SDS011;14306;49.942;11.570;2023-12-20T05:09:17;1.15;;;0.90;;
1370;SDS011;14306;49.942;11.570;2023-12-20T05:10:51;1.70;;;1.25;;
1370;SDS011;14306;49.942;11.570;2023-12-20T05:12:25;1.48;;;1.02;;
1370;SDS011;14306;49.942;11.570;2023-12-20T05:14:00;1.10;;;1.00;;
1370;SDS011;14306;49.942;11.570;2023-12-20T05:15:35;1.00;;;0.90;;
1370;SDS011;14306;49.942;11.570;2023-12-20T05:17:09;1.15;;;0.70;;
1370;SDS011;14306;49.942;11.570;2023-12-20T05:18:42;0.70;;;0.70;;
1370;SDS011;14306;49.942;11.570;2023-12-20T05:20:17;1.00;;;0.90;;
1370;SDS011;14306;49.942;11.570;2023-12-20T05:21:51;0.70;;;0.70;;
1370;SDS011;14306;49.942;11.570;2023-12-20T05:23:24;0.80;;;0.80;;
1370;SDS011;14306;49.942;11.570;2023-12-20T05:24:58;3.60;;;1.02;;
1370;SDS011;14306;49.942;11.570;2023-12-20T05:26:31;1.15;;;1.00;;
1370;SDS011;14306;49.942;11.570;2023-12-20T05:28:05;2.58;;;1.13;;
1370;SDS011;14306;49.942;11.570;2023-12-20T05:29:38;1.42;;;1.00;;
1370;SDS011;14306;49.942;11.570;2023-12-20T05:31:13;1.10;;;0.80;;
1370;SDS011;14306;49.942;11.570;2023-12-20T05:32:48;1.15;;;0.80;;
1370;SDS011;14306;49.942;11.570;2023-12-20T05:34:21;3.88;;;1.13;;
1370;SDS011;14306;49.942;11.570;2023-12-20T05:35:56;1.40;;;1.00;;
1370;SDS011;14306;49.942;11.570;2023-12-20T05:37:29;0.88;;;0.82;;
1370;SDS011;14306;49.942;11.570;2023-12-20T05:39:04;1.20;;;0.90;;
1370;SDS011;14306;49.942;11.570;2023-12-20T05:40:37;1.10;;;1.00;;
1370;SDS011;14306;49.942;11.570;2023-12-20T05:42:11;2.40;;;1.10;;
1370;SDS011;14306;49.942;11.570;2023-12-20T05:43:44;6.68;;;3.05;;
1370;SDS011;14306;49.942;11.570;2023-12-20T05:45:18;5.53;;;2.53;;
1370;SDS011;14306;49.942;11.570;2023-12-20T05:46:54;1.48;;;1.10;;
1370;SDS011;14306;49.942;11.570;2023-12-20T05:48:27;1.50;;;0.98;;
1370;SDS011;14306;49.942;11.570;2023-12-20T05:50:01;4.22;;;1.60;;
1370;SDS011;14306;49.942;11.570;2023-12-20T05:51:35;2.42;;;1.33;;
1370;SDS011;14306;49.942;11.570;2023-12-20T05:53:09;2.53;;;1.58;;
1370;SDS011;14306;49.942;11.570;2023-12-20T05:54:42;2.78;;;1.35;;
1370;SDS011;14306;49.942;11.570;2023-12-20T05:56:16;1.95;;;1.65;;
1370;SDS011;14306;49.942;11.570;2023-12-20T05:57:49;2.17;;;1.42;;
1370;SDS011;14306;49.942;11.570;2023-12-20T05:59:23;3.92;;;1.52;;
1370;SDS011;14306;49.942;11.570;2023-12-20T06:00:56;1.30;;;1.20;;
1370;SDS011;14306;49.942;11.570;2023-12-20T06:02:32;1.33;;;1.00;;
1370;SDS011;14306;49.942;11.570;2023-12-20T06:04:05;1.85;;;1.38;;
1370;SDS011;14306;49.942;11.570;2023-12-20T06:05:39;3.20;;;1.40;;
1370;SDS011;14306;49.942;11.570;2023-12-20T06:07:13;2.15;;;1.60;;
1370;SDS011;14306;49.942;11.570;2023-12-20T06:08:48;2.85;;;1.70;;
1370;SDS011;14306;49.942;11.570;2023-12-20T06:10:21;1.48;;;1.38;;
1370;SDS011;14306;49.942;11.570;2023-12-20T06:11:56;1.20;;;1.10;;
1370;SDS011;14306;49.942;11.570;2023-12-20T06:13:29;2.40;;;1.67;;
1370;SDS011;14306;49.942;11.570;2023-12-20T06:15:03;3.63;;;1.10;;
1370;SDS011;14306;49.942;11.570;2023-12-20T06:16:38;1.17;;;1.08;;
1370;SDS011;14306;49.942;11.570;2023-12-20T06:18:14;1.65;;;1.30;;
1370;SDS011;14306;49.942;11.570;2023-12-20T06:19:47;1.83;;;1.45;;
1370;SDS011;14306;49.942;11.570;2023-12-20T06:21:22;1.25;;;1.10;;
1370;SDS011;14306;49.942;11.570;2023-12-20T06:22:55;1.77;;;1.50;;
1370;SDS011;14306;49.942;11.570;2023-12-20T06:24:30;4.82;;;1.90;;
1370;SDS011;14306;49.942;11.570;2023-12-20T06:26:06;2.10;;;1.50;;
1370;SDS011;14306;49.942;11.570;2023-12-20T06:27:40;2.78;;;1.40;;
1370;SDS011;14306;49.942;11.570;2023-12-20T06:29:14;2.72;;;1.70;;
1370;SDS011;14306;49.942;11.570;2023-12-20T06:30:49;3.85;;;2.20;;
1370;SDS011;14306;49.942;11.570;2023-12-20T06:32:25;6.35;;;2.50;;
1370;SDS011;14306;49.942;11.570;2023-12-20T06:34:03;2.97;;;1.90;;
1370;SDS011;14306;49.942;11.570;2023-12-20T06:35:37;2.30;;;2.10;;
1370;SDS011;14306;49.942;11.570;2023-12-20T06:37:11;2.78;;;2.08;;
1370;SDS011;14306;49.942;11.570;2023-12-20T06:38:44;3.03;;;2.38;;
1370;SDS011;14306;49.942;11.570;2023-12-20T06:40:19;3.50;;;2.60;;
1370;SDS011;14306;49.942;11.570;2023-12-20T06:41:54;2.10;;;1.90;;
1370;SDS011;14306;49.942;11.570;2023-12-20T06:43:28;2.17;;;1.75;;
1370;SDS011;14306;49.942;11.570;2023-12-20T06:45:20;2.50;;;2.30;;
1370;SDS011;14306;49.942;11.570;2023-12-20T06:46:55;2.45;;;2.25;;
1370;SDS011;14306;49.942;11.570;2023-12-20T06:48:29;2.45;;;2.30;;
1370;SDS011;14306;49.942;11.570;2023-12-20T06:50:05;1.60;;;1.50;;
1370;SDS011;14306;49.942;11.570;2023-12-20T06:51:40;2.13;;;1.77;;
1370;SDS011;14306;49.942;11.570;2023-12-20T06:53:15;2.30;;;1.60;;
1370;SDS011;14306;49.942;11.570;2023-12-20T06:54:49;3.42;;;2.05;;
1370;SDS011;14306;49.942;11.570;2023-12-20T06:56:23;3.83;;;2.50;;
1370;SDS011;14306;49.942;11.570;2023-12-20T06:57:57;5.25;;;2.08;;
1370;SDS011;14306;49.942;11.570;2023-12-20T06:59:31;3.05;;;1.80;;
1370;SDS011;14306;49.942;11.570;2023-12-20T07:01:07;4.43;;;1.85;;
1370;SDS011;14306;49.942;11.570;2023-12-20T07:02:45;3.40;;;1.67;;
1370;SDS011;14306;49.942;11.570;2023-12-20T07:04:20;4.30;;;1.50;;
1370;SDS011;14306;49.942;11.570;2023-12-20T07:05:56;5.65;;;3.13;;
1370;SDS011;14306;49.942;11.570;2023-12-20T07:07:30;2.50;;;1.80;;
1370;SDS011;14306;49.942;11.570;2023-12-20T07:09:03;9.32;;;1.58;;
1370;SDS011;14306;49.942;11.570;2023-12-20T07:10:38;1.67;;;1.48;;
1370;SDS011;14306;49.942;11.570;2023-12-20T07:12:12;1.40;;;1.30;;
1370;SDS011;14306;49.942;11.570;2023-12-20T07:13:46;1.55;;;1.45;;
1370;SDS011;14306;49.942;11.570;2023-12-20T07:15:21;2.35;;;1.48;;
1370;SDS011;14306;49.942;11.570;2023-12-20T07:16:54;2.20;;;2.00;;
1370;SDS011;14306;49.942;11.570;2023-12-20T07:18:28;8.05;;;2.00;;
1370;SDS011;14306;49.942;11.570;2023-12-20T07:20:02;2.75;;;2.30;;
1370;SDS011;14306;49.942;11.570;2023-12-20T07:21:41;3.50;;;2.78;;
1370;SDS011;14306;49.942;11.570;2023-12-20T07:23:14;4.45;;;2.50;;
1370;SDS011;14306;49.942;11.570;2023-12-20T07:24:49;3.22;;;2.70;;
1370;SDS011;14306;49.942;11.570;2023-12-20T07:26:24;3.35;;;2.65;;
1370;SDS011;14306;49.942;11.570;2023-12-20T07:27:59;4.35;;;3.60;;
1370;SDS011;14306;49.942;11.570;2023-12-20T07:29:33;6.28;;;3.63;;
1370;SDS011;14306;49.942;11.570;2023-12-20T07:31:08;4.93;;;3.60;;
1370;SDS011;14306;49.942;11.570;2023-12-20T07:32:41;4.32;;;3.83;;
1370;SDS011;14306;49.942;11.570;2023-12-20T07:34:15;9.10;;;3.45;;
1370;SDS011;14306;49.942;11.570;2023-12-20T07:35:49;3.50;;;2.78;;
1370;SDS011;14306;49.942;11.570;2023-12-20T07:37:26;3.35;;;2.67;;
1370;SDS011;14306;49.942;11.570;2023-12-20T07:39:00;3.33;;;3.03;;
1370;SDS011;14306;49.942;11.570;2023-12-20T07:40:35;8.88;;;3.30;;
1370;SDS011;14306;49.942;11.570;2023-12-20T07:42:09;5.75;;;3.38;;
1370;SDS011;14306;49.942;11.570;2023-12-20T07:43:44;3.80;;;3.30;;
1370;SDS011;14306;49.942;11.570;2023-12-20T07:45:17;5.47;;;4.10;;
1370;SDS011;14306;49.942;11.570;2023-12-20T07:46:52;7.10;;;3.80;;
1370;SDS011;14306;49.942;11.570;2023-12-20T07:48:25;5.07;;;4.05;;
1370;SDS011;14306;49.942;11.570;2023-12-20T07:50:00;6.88;;;4.25;;
1370;SDS011;14306;49.942;11.570;2023-12-20T07:51:35;7.45;;;3.83;;
1370;SDS011;14306;49.942;11.570;2023-12-20T07:53:10;6.30;;;4.10;;
1370;SDS011;14306;49.942;11.570;2023-12-20T07:54:44;5.03;;;3.42;;
1370;SDS011;14306;49.942;11.570;2023-12-20T07:56:18;5.25;;;4.10;;
1370;SDS011;14306;49.942;11.570;2023-12-20T07:57:53;5.32;;;4.65;;
1370;SDS011;14306;49.942;11.570;2023-12-20T07:59:26;5.00;;;3.97;;
1370;SDS011;14306;49.942;11.570;2023-12-20T08:01:04;6.35;;;3.95;;
1370;SDS011;14306;49.942;11.570;2023-12-20T08:02:38;5.55;;;4.50;;
1370;SDS011;14306;49.942;11.570;2023-12-20T08:04:13;4.75;;;4.15;;
1370;SDS011;14306;49.942;11.570;2023-12-20T08:05:46;5.80;;;3.95;;
1370;SDS011;14306;49.942;11.570;2023-12-20T08:07:21;6.18;;;4.10;;
1370;SDS011;14306;49.942;11.570;2023-12-20T08:08:56;5.95;;;3.65;;
1370;SDS011;14306;49.942;11.570;2023-12-20T08:10:38;3.75;;;3.45;;
1370;SDS011;14306;49.942;11.570;2023-12-20T08:12:11;5.40;;;4.13;;
1370;SDS011;14306;49.942;11.570;2023-12-20T08:13:45;5.82;;;4.20;;
1370;SDS011;14306;49.942;11.570;2023-12-20T08:15:19;3.85;;;3.40;;
1370;SDS011;14306;49.942;11.570;2023-12-20T08:16:54;6.70;;;3.70;;
1370;SDS011;14306;49.942;11.570;2023-12-20T08:18:27;11.60;;;4.55;;
1370;SDS011;14306;49.942;11.570;2023-12-20T08:20:02;7.13;;;4.15;;
1370;SDS011;14306;49.942;11.570;2023-12-20T08:21:36;4.78;;;3.78;;
1370;SDS011;14306;49.942;11.570;2023-12-20T08:23:10;5.72;;;3.88;;
1370;SDS011;14306;49.942;11.570;2023-12-20T08:24:46;4.60;;;3.55;;
1370;SDS011;14306;49.942;11.570;2023-12-20T08:26:20;9.15;;;3.30;;
1370;SDS011;14306;49.942;11.570;2023-12-20T08:27:55;4.05;;;3.45;;
1370;SDS011;14306;49.942;11.570;2023-12-20T08:29:30;4.28;;;3.67;;
1370;SDS011;14306;49.942;11.570;2023-12-20T08:31:04;4.38;;;3.35;;
1370;SDS011;14306;49.942;11.570;2023-12-20T08:32:38;4.28;;;3.85;;
1370;SDS011;14306;49.942;11.570;2023-12-20T08:34:13;5.75;;;3.50;;
1370;SDS011;14306;49.942;11.570;2023-12-20T08:35:47;4.50;;;3.40;;
1370;SDS011;14306;49.942;11.570;2023-12-20T08:37:22;4.00;;;3.35;;
1370;SDS011;14306;49.942;11.570;2023-12-20T08:38:57;7.10;;;3.92;;
1370;SDS011;14306;49.942;11.570;2023-12-20T08:40:32;6.35;;;3.95;;
1370;SDS011;14306;49.942;11.570;2023-12-20T08:42:06;6.38;;;4.30;;
1370;SDS011;14306;49.942;11.570;2023-12-20T08:43:39;5.53;;;4.35;;
1370;SDS011;14306;49.942;11.570;2023-12-20T08:45:13;6.43;;;4.03;;
1370;SDS011;14306;49.942;11.570;2023-12-20T08:46:47;4.13;;;3.20;;
1370;SDS011;14306;49.942;11.570;2023-12-20T08:48:21;6.45;;;3.33;;
1370;SDS011;14306;49.942;11.570;2023-12-20T08:49:54;5.38;;;3.63;;
1370;SDS011;14306;49.942;11.570;2023-12-20T08:51:30;4.20;;;3.72;;
1370;SDS011;14306;49.942;11.570;2023-12-20T08:53:05;10.25;;;3.92;;
1370;SDS011;14306;49.942;11.570;2023-12-20T08:54:40;5.78;;;5.05;;
1370;SDS011;14306;49.942;11.570;2023-12-20T08:56:18;8.15;;;3.78;;
1370;SDS011;14306;49.942;11.570;2023-12-20T08:57:52;8.55;;;4.43;;
1370;SDS011;14306;49.942;11.570;2023-12-20T08:59:26;6.63;;;4.55;;
1370;SDS011;14306;49.942;11.570;2023-12-20T09:01:01;7.20;;;4.20;;
1370;SDS011;14306;49.942;11.570;2023-12-20T09:02:35;9.25;;;4.53;;
1370;SDS011;14306;49.942;11.570;2023-12-20T09:04:10;7.05;;;4.65;;
1370;SDS011;14306;49.942;11.570;2023-12-20T09:05:46;4.88;;;4.15;;
1370;SDS011;14306;49.942;11.570;2023-12-20T09:07:20;6.70;;;3.90;;
1370;SDS011;14306;49.942;11.570;2023-12-20T09:08:56;5.70;;;4.30;;
1370;SDS011;14306;49.942;11.570;2023-12-20T09:10:31;4.38;;;3.47;;
1370;SDS011;14306;49.942;11.570;2023-12-20T09:12:08;4.88;;;3.20;;
1370;SDS011;14306;49.942;11.570;2023-12-20T09:13:41;5.40;;;3.80;;
1370;SDS011;14306;49.942;11.570;2023-12-20T09:15:16;5.90;;;3.80;;
1370;SDS011;14306;49.942;11.570;2023-12-20T09:16:50;4.68;;;3.78;;
1370;SDS011;14306;49.942;11.570;2023-12-20T09:18:25;3.60;;;3.30;;
1370;SDS011;14306;49.942;11.570;2023-12-20T09:19:58;4.45;;;3.17;;
1370;SDS011;14306;49.942;11.570;2023-12-20T09:21:33;4.65;;;3.38;;
1370;SDS011;14306;49.942;11.570;2023-12-20T09:23:07;5.57;;;3.50;;
1370;SDS011;14306;49.942;11.570;2023-12-20T09:24:42;5.35;;;3.78;;
1370;SDS011;14306;49.942;11.570;2023-12-20T09:26:15;3.42;;;3.00;;
1370;SDS011;14306;49.942;11.570;2023-12-20T09:27:51;4.07;;;3.67;;